Cordova, Alabama
Current Conditions -  °F | °C
As of 12:35 PM on Monday 26 Jan 2015 (Local Time) from KJFX Reporting Station
Broken Clouds Broken Clouds  
Wind Chill: 41°   Ceiling: 2600
Heat Index: 46°   Visibility: 10mi
Dew Point: 32°   Wind: 13mph
Humidity: 57%   Direction: 290°WNW
Pressure: 30.03"   Gusts: 17mph
Location:  33.76°N, 87.18°W
Report Text: KJFX 261835Z AUTO 29011G15KT 10SM BKN026 08/00 A3003 RMK A02 P-128
Loading
Personal Weather Stations






























Interactive Weather Map New forecast layout! Learn more

10-Day Weather Forecast

Advertisements
Track Severe Weather on mobile